Yellowstone National Park, Wyoming
Current Conditions -  °F | °C
As of 10:35 AM on Thursday 23 Oct 2014 (Local Time) from KWYS Reporting Station
Overcast Overcast  
Wind Chill: 38°   Ceiling: 9000
Heat Index: 43°   Visibility: 10mi
Dew Point: 25°   Wind: 8mph
Humidity: 49%   Direction: 200°SSW
Pressure: 30.14"   Gusts: 21mph
Location:  44.5747°N, 110.518°W
Report Text: KWYS 231635Z AUTO 20007G18KT 10SM OVC090 06/M04 A3014 RMK AO2
Loading
Personal Weather Stations






























Interactive Weather Map
Tropical Storm Tracking
New forecast layout! Learn more

10-Day Weather Forecast

Advertisements
Track Severe Weather on mobile